createdAt,value
2017-11-11T00:00:36.476Z,86.72
2017-11-11T00:01:36.469Z,87.87
2017-11-11T00:02:36.474Z,87.01
2017-11-11T00:03:36.464Z,87.01
2017-11-11T00:04:36.468Z,88.43
2017-11-11T00:05:36.456Z,87.87
2017-11-11T00:06:36.447Z,87.39
2017-11-11T00:07:36.443Z,87.49
2017-11-11T00:08:36.464Z,88.34
2017-11-11T00:09:36.430Z,87.96
2017-11-11T00:10:36.426Z,88.53
2017-11-11T00:11:36.435Z,88.34
2017-11-11T00:12:36.414Z,88.34
2017-11-11T00:13:36.420Z,90.33
2017-11-11T00:14:36.411Z,89.86
2017-11-11T00:15:36.411Z,90.05
2017-11-11T00:16:36.392Z,89.58
2017-11-11T00:17:36.393Z,89.00
2017-11-11T00:18:36.381Z,89.95
2017-11-11T00:19:36.389Z,89.58
2017-11-11T00:20:36.374Z,88.91
2017-11-11T00:21:36.364Z,89.39
2017-11-11T00:22:36.364Z,89.29
2017-11-11T00:23:36.359Z,89.86
2017-11-11T00:24:36.371Z,89.48
2017-11-11T00:25:36.344Z,89.95
2017-11-11T00:26:36.354Z,89.58
2017-11-11T00:27:36.332Z,89.39
2017-11-11T00:28:36.325Z,89.86
2017-11-11T00:29:36.320Z,89.86
2017-11-11T00:30:36.311Z,89.67
2017-11-11T00:31:36.332Z,89.34
2017-11-11T00:32:36.306Z,89.48
2017-11-11T00:33:36.299Z,89.67
2017-11-11T00:34:36.303Z,90.90
2017-11-11T00:35:36.287Z,89.95
2017-11-11T00:36:36.311Z,89.48
2017-11-11T00:37:36.277Z,89.10
2017-11-11T00:38:36.275Z,89.48
2017-11-11T00:39:36.265Z,89.95
2017-11-11T00:40:36.272Z,89.67
2017-11-11T00:41:36.255Z,89.39
2017-11-11T00:42:36.249Z,90.14
2017-11-11T00:43:36.239Z,88.81
2017-11-11T00:44:36.258Z,88.91
2017-11-11T00:45:36.227Z,88.34
2017-11-11T00:46:36.237Z,88.34
2017-11-11T00:47:36.227Z,89.58
2017-11-11T00:48:36.259Z,89.58
2017-11-11T00:49:36.211Z,89.00
2017-11-11T00:50:36.248Z,89.58
2017-11-11T00:51:36.203Z,89.10
2017-11-11T00:52:36.231Z,88.24
2017-11-11T00:53:36.185Z,87.58
2017-11-11T00:54:36.225Z,87.87
2017-11-11T00:55:36.177Z,87.96
2017-11-11T00:56:36.211Z,87.01
2017-11-11T00:57:36.167Z,86.91
2017-11-11T00:58:36.156Z,86.91
2017-11-11T00:59:36.157Z,86.91
2017-11-11T01:00:36.148Z,86.82
2017-11-11T01:01:36.155Z,86.82
2017-11-11T01:02:36.139Z,86.91
2017-11-11T01:03:36.180Z,86.91
2017-11-11T01:04:36.159Z,86.72
2017-11-11T01:05:36.124Z,86.82
2017-11-11T01:06:36.132Z,87.87
2017-11-11T01:07:36.111Z,87.49
2017-11-11T01:08:36.110Z,87.01
2017-11-11T01:09:36.100Z,87.01
2017-11-11T01:10:36.091Z,86.35
2017-11-11T01:11:36.092Z,86.72
2017-11-11T01:12:36.087Z,87.77
2017-11-11T01:13:36.080Z,87.01
2017-11-11T01:14:36.075Z,86.44
2017-11-11T01:15:36.070Z,86.63
2017-11-11T01:16:36.065Z,86.91
2017-11-11T01:17:36.054Z,86.63
2017-11-11T01:18:36.054Z,85.40
2017-11-11T01:19:36.051Z,86.07
2017-11-11T01:20:36.051Z,86.25
2017-11-11T01:21:36.038Z,86.72
2017-11-11T01:22:36.034Z,86.54
2017-11-11T01:23:36.027Z,85.49
2017-11-11T01:24:36.019Z,85.11
2017-11-11T01:25:36.040Z,86.91
2017-11-11T01:26:36.012Z,86.25
2017-11-11T01:27:36.007Z,85.21
2017-11-11T01:28:36.000Z,86.72
2017-11-11T01:29:35.995Z,87.68
2017-11-11T01:30:35.982Z,86.07
2017-11-11T01:31:35.980Z,86.25
2017-11-11T01:32:36.005Z,86.16
2017-11-11T01:33:35.982Z,86.25
2017-11-11T01:34:35.976Z,86.07
2017-11-11T01:35:35.970Z,86.91
2017-11-11T01:36:35.956Z,85.30
2017-11-11T01:37:35.948Z,85.78
2017-11-11T01:38:35.943Z,86.44
2017-11-11T01:39:35.937Z,85.78
2017-11-11T01:40:35.931Z,86.07
2017-11-11T01:41:35.931Z,86.44
2017-11-11T01:42:35.929Z,86.44
2017-11-11T01:43:35.919Z,85.49
2017-11-11T01:44:35.948Z,85.87
2017-11-11T01:45:35.908Z,85.30
2017-11-11T01:46:35.902Z,88.24
2017-11-11T01:47:35.894Z,87.11
2017-11-11T01:48:35.945Z,86.35
2017-11-11T01:49:35.887Z,85.11
2017-11-11T01:50:35.885Z,86.91
2017-11-11T01:51:35.876Z,85.30
2017-11-11T01:52:35.866Z,86.16
2017-11-11T01:53:35.870Z,85.02
2017-11-11T01:54:35.855Z,85.40
2017-11-11T01:55:35.861Z,84.74
2017-11-11T01:56:35.847Z,85.30
2017-11-11T01:57:35.862Z,84.55
2017-11-11T01:58:35.860Z,84.17
2017-11-11T01:59:35.833Z,83.78
2017-11-11T02:00:35.842Z,84.07
2017-11-11T02:01:35.820Z,84.83
2017-11-11T02:02:35.825Z,84.07
2017-11-11T02:03:35.827Z,85.59
2017-11-11T02:04:35.801Z,84.74
2017-11-11T02:05:35.831Z,85.30
2017-11-11T02:06:35.792Z,85.78
2017-11-11T02:07:35.803Z,84.92
2017-11-11T02:08:35.788Z,85.02
2017-11-11T02:09:35.784Z,84.55
2017-11-11T02:10:35.776Z,83.22
2017-11-11T02:11:35.764Z,82.93
2017-11-11T02:12:35.768Z,83.78
2017-11-11T02:13:35.759Z,84.64
2017-11-11T02:14:35.752Z,83.59
2017-11-11T02:15:35.747Z,83.50
2017-11-11T02:16:35.738Z,85.59
2017-11-11T02:17:35.731Z,83.22
2017-11-11T02:18:35.728Z,83.22
2017-11-11T02:19:35.724Z,83.50
2017-11-11T02:20:35.730Z,83.59
2017-11-11T02:21:35.733Z,84.64
2017-11-11T02:22:35.713Z,83.97
2017-11-11T02:23:35.701Z,83.12
2017-11-11T02:24:35.702Z,84.26
2017-11-11T02:25:35.695Z,83.50
2017-11-11T02:26:35.682Z,83.78
2017-11-11T02:27:35.681Z,83.59
2017-11-11T02:28:35.693Z,85.40
2017-11-11T02:29:35.686Z,85.40
2017-11-11T02:30:35.682Z,84.92
2017-11-11T02:31:35.667Z,83.69
2017-11-11T02:32:35.650Z,86.16
2017-11-11T02:33:35.649Z,84.45
2017-11-11T02:34:35.643Z,85.49
2017-11-11T02:35:35.645Z,84.36
2017-11-11T02:36:35.632Z,83.59
2017-11-11T02:37:35.634Z,84.64
2017-11-11T02:38:35.625Z,83.88
2017-11-11T02:39:35.618Z,83.50
2017-11-11T02:40:35.613Z,83.31
2017-11-11T02:41:35.607Z,83.50
2017-11-11T02:42:35.597Z,83.40
2017-11-11T02:43:35.596Z,83.69
2017-11-11T02:44:35.591Z,84.64
2017-11-11T02:45:35.583Z,84.07
2017-11-11T02:46:35.603Z,83.59
2017-11-11T02:47:35.584Z,83.40
2017-11-11T02:48:35.566Z,84.74
2017-11-11T02:49:35.572Z,84.74
2017-11-11T02:50:35.581Z,84.26
2017-11-11T02:51:35.549Z,84.36
2017-11-11T02:52:35.550Z,86.44
2017-11-11T02:53:35.540Z,86.35
2017-11-11T02:54:35.549Z,85.78
2017-11-11T02:55:35.542Z,84.92
2017-11-11T02:56:35.521Z,83.78
2017-11-11T02:57:35.537Z,84.45
2017-11-11T02:58:35.517Z,84.36
2017-11-11T02:59:35.505Z,84.64
2017-11-11T03:00:35.508Z,84.26
2017-11-11T03:01:35.532Z,84.17
2017-11-11T03:02:35.494Z,84.36
2017-11-11T03:03:35.486Z,85.30
2017-11-11T03:04:35.482Z,84.07
2017-11-11T03:05:35.488Z,83.69
2017-11-11T03:06:35.468Z,83.88
2017-11-11T03:07:35.459Z,85.59
2017-11-11T03:08:35.459Z,84.07
2017-11-11T03:09:35.459Z,83.97
2017-11-11T03:10:35.465Z,83.97
2017-11-11T03:11:35.441Z,83.69
2017-11-11T03:12:35.441Z,83.50
2017-11-11T03:13:35.429Z,83.22
2017-11-11T03:14:35.428Z,83.22
2017-11-11T03:15:35.428Z,83.40
2017-11-11T03:16:35.413Z,84.26
2017-11-11T03:17:35.409Z,83.88
2017-11-11T03:18:35.416Z,84.64
2017-11-11T03:19:35.393Z,84.36
2017-11-11T03:20:35.397Z,83.78
2017-11-11T03:21:35.386Z,83.59
2017-11-11T03:22:35.386Z,83.69
2017-11-11T03:23:35.375Z,85.78
2017-11-11T03:24:35.371Z,84.74
2017-11-11T03:25:35.366Z,85.49
2017-11-11T03:26:35.368Z,83.50
2017-11-11T03:27:35.361Z,84.07
2017-11-11T03:28:35.348Z,83.12
2017-11-11T03:29:35.341Z,84.74
2017-11-11T03:30:35.345Z,84.36
2017-11-11T03:31:35.365Z,85.40
2017-11-11T03:32:35.327Z,83.59
2017-11-11T03:33:35.321Z,83.59
2017-11-11T03:34:35.323Z,84.55
2017-11-11T03:35:35.318Z,84.36
2017-11-11T03:36:35.308Z,84.55
2017-11-11T03:37:35.299Z,86.63
2017-11-11T03:38:35.312Z,87.30
2017-11-11T03:39:35.297Z,86.35
2017-11-11T03:40:35.287Z,85.11
2017-11-11T03:41:35.286Z,86.82
2017-11-11T03:42:35.277Z,85.78
2017-11-11T03:43:35.267Z,86.72
2017-11-11T03:44:35.261Z,86.82
2017-11-11T03:45:35.254Z,85.30
2017-11-11T03:46:35.258Z,84.45
2017-11-11T03:47:35.253Z,84.64
2017-11-11T03:48:35.248Z,86.54
2017-11-11T03:49:35.245Z,85.49
2017-11-11T03:50:35.242Z,84.07
2017-11-11T03:51:35.242Z,83.97
2017-11-11T03:52:35.217Z,83.88
2017-11-11T03:53:35.229Z,83.97
2017-11-11T03:54:35.211Z,83.12
2017-11-11T03:55:35.207Z,85.78
2017-11-11T03:56:35.219Z,85.30
2017-11-11T03:57:35.193Z,83.69
2017-11-11T03:58:35.192Z,84.55
2017-11-11T03:59:35.182Z,84.74
2017-11-11T04:00:35.197Z,85.87
2017-11-11T04:01:35.180Z,86.91
2017-11-11T04:02:35.176Z,85.97
2017-11-11T04:03:35.168Z,83.88
2017-11-11T04:04:35.172Z,84.45
2017-11-11T04:05:35.150Z,84.92
2017-11-11T04:06:35.150Z,86.82
2017-11-11T04:07:35.141Z,86.16
2017-11-11T04:08:35.148Z,84.07
2017-11-11T04:09:35.128Z,85.78
2017-11-11T04:10:35.143Z,84.26
2017-11-11T04:11:35.120Z,84.64
2017-11-11T04:12:35.114Z,87.20
2017-11-11T04:13:35.127Z,86.07
2017-11-11T04:14:35.101Z,85.30
2017-11-11T04:15:35.097Z,84.92
2017-11-11T04:16:35.093Z,83.78
2017-11-11T04:17:35.095Z,83.31
2017-11-11T04:18:35.084Z,84.12
2017-11-11T04:19:35.074Z,84.03
2017-11-11T04:20:35.077Z,83.94
2017-11-11T04:21:35.088Z,84.69
2017-11-11T04:22:35.095Z,85.55
2017-11-11T04:23:35.062Z,84.92
2017-11-11T04:24:35.054Z,85.93
2017-11-11T04:25:35.046Z,84.64
2017-11-11T04:26:35.044Z,84.64
2017-11-11T04:27:35.039Z,85.40
2017-11-11T04:28:35.028Z,85.97
2017-11-11T04:29:35.019Z,84.64
2017-11-11T04:30:35.019Z,83.94
2017-11-11T04:31:35.010Z,85.59
2017-11-11T04:32:35.022Z,85.21
2017-11-11T04:33:35.004Z,83.84
2017-11-11T04:34:34.994Z,83.97
2017-11-11T04:35:34.994Z,83.84
2017-11-11T04:36:34.992Z,85.30
2017-11-11T04:37:34.985Z,85.78
2017-11-11T04:38:34.974Z,85.59
2017-11-11T04:39:34.970Z,83.84
2017-11-11T04:40:34.969Z,83.27
2017-11-11T04:41:34.954Z,86.35
2017-11-11T04:42:34.952Z,84.88
2017-11-11T04:43:34.962Z,83.84
2017-11-11T04:44:34.946Z,84.64
2017-11-11T04:45:34.931Z,84.92
2017-11-11T04:46:34.939Z,85.49
2017-11-11T04:47:34.936Z,84.64
2017-11-11T04:48:34.914Z,84.69
2017-11-11T04:49:34.921Z,84.83
2017-11-11T04:50:34.924Z,83.94
2017-11-11T04:51:34.908Z,84.78
2017-11-11T04:52:34.900Z,84.69
2017-11-11T04:53:34.910Z,84.55
2017-11-11T04:54:34.888Z,83.97
2017-11-11T04:55:34.879Z,84.74
2017-11-11T04:56:34.879Z,85.21
2017-11-11T04:57:34.873Z,85.07
2017-11-11T04:58:34.857Z,85.26
2017-11-11T04:59:34.882Z,87.20
2017-11-11T05:00:34.863Z,87.11
2017-11-11T05:01:34.862Z,86.59
2017-11-11T05:02:34.843Z,87.73
2017-11-11T05:03:34.832Z,87.25
2017-11-11T05:04:34.833Z,87.25
2017-11-11T05:05:34.819Z,87.63
2017-11-11T05:06:34.822Z,89.15
2017-11-11T05:07:34.813Z,89.91
2017-11-11T05:08:34.807Z,90.10
2017-11-11T05:09:34.798Z,90.57
2017-11-11T05:10:34.797Z,90.86
2017-11-11T05:11:34.795Z,90.48
2017-11-11T05:12:34.779Z,91.24
2017-11-11T05:13:34.780Z,91.05
2017-11-11T05:14:34.794Z,90.67
2017-11-11T05:15:34.767Z,91.24
2017-11-11T05:16:34.757Z,90.86
2017-11-11T05:17:34.753Z,90.95
2017-11-11T05:18:34.744Z,91.42
2017-11-11T05:19:34.753Z,91.42
2017-11-11T05:20:34.732Z,91.71
2017-11-11T05:21:34.736Z,91.05
2017-11-11T05:22:34.731Z,91.05
2017-11-11T05:23:34.727Z,91.14
2017-11-11T05:24:34.716Z,90.67
2017-11-11T05:25:34.713Z,90.48
2017-11-11T05:26:34.703Z,90.00
2017-11-11T05:27:34.698Z,90.00
2017-11-11T05:28:34.700Z,91.05
2017-11-11T05:29:34.688Z,90.86
2017-11-11T05:30:34.697Z,90.48
2017-11-11T05:31:34.673Z,91.05
2017-11-11T05:32:34.665Z,90.48
2017-11-11T05:33:34.661Z,91.42
2017-11-11T05:34:34.668Z,91.05
2017-11-11T05:35:34.665Z,90.10
2017-11-11T05:36:34.646Z,90.29
2017-11-11T05:37:34.636Z,91.14
2017-11-11T05:38:34.646Z,89.53
2017-11-11T05:39:34.628Z,89.34
2017-11-11T05:40:34.624Z,90.10
2017-11-11T05:41:34.614Z,90.00
2017-11-11T05:42:34.609Z,90.38
2017-11-11T05:43:34.640Z,89.81
2017-11-11T05:44:34.604Z,89.91
2017-11-11T05:45:34.598Z,90.48
2017-11-11T05:46:34.599Z,90.00
2017-11-11T05:47:34.580Z,91.24
2017-11-11T05:48:34.581Z,89.91
2017-11-11T05:49:34.565Z,91.38
2017-11-11T05:50:34.560Z,90.90
2017-11-11T05:51:34.564Z,90.05
2017-11-11T05:52:34.552Z,89.48
2017-11-11T05:53:34.543Z,88.24
2017-11-11T05:54:34.539Z,88.96
2017-11-11T05:55:34.530Z,88.20
2017-11-11T05:56:34.523Z,89.06
2017-11-11T05:57:34.515Z,88.10
2017-11-11T05:58:34.513Z,88.39
2017-11-11T05:59:34.513Z,88.96
2017-11-11T06:00:34.505Z,89.25
2017-11-11T06:01:34.517Z,88.96
2017-11-11T06:02:34.488Z,88.68
2017-11-11T06:03:34.493Z,88.87
2017-11-11T06:04:34.478Z,89.91
2017-11-11T06:05:34.520Z,89.81
2017-11-11T06:06:34.466Z,90.67
2017-11-11T06:07:34.464Z,90.00
2017-11-11T06:08:34.464Z,90.10
2017-11-11T06:09:34.474Z,89.43
2017-11-11T06:10:34.442Z,89.43
2017-11-11T06:11:34.443Z,89.15
2017-11-11T06:12:34.438Z,90.19
2017-11-11T06:13:34.430Z,88.96
2017-11-11T06:14:34.419Z,88.20
2017-11-11T06:15:34.414Z,89.62
2017-11-11T06:16:34.416Z,89.06
2017-11-11T06:17:34.412Z,89.62
2017-11-11T06:18:34.411Z,89.81
2017-11-11T06:19:34.389Z,90.00
2017-11-11T06:20:34.384Z,89.43
2017-11-11T06:21:34.387Z,88.48
2017-11-11T06:22:34.376Z,88.10
2017-11-11T06:23:34.366Z,88.77
2017-11-11T06:24:34.363Z,88.77
2017-11-11T06:25:34.356Z,89.06
2017-11-11T06:26:34.350Z,88.87
2017-11-11T06:27:34.371Z,89.53
2017-11-11T06:28:34.338Z,89.15
2017-11-11T06:29:34.344Z,88.96
2017-11-11T06:30:34.334Z,89.06
2017-11-11T06:31:34.323Z,88.96
2017-11-11T06:32:34.319Z,90.57
2017-11-11T06:33:34.312Z,89.62
2017-11-11T06:34:34.332Z,90.57
2017-11-11T06:35:34.297Z,89.25
2017-11-11T06:36:34.293Z,88.77
2017-11-11T06:37:34.285Z,90.19
2017-11-11T06:38:34.274Z,88.96
2017-11-11T06:39:34.273Z,88.87
2017-11-11T06:40:34.291Z,89.06
2017-11-11T06:41:34.266Z,88.87
2017-11-11T06:42:34.254Z,87.73
2017-11-11T06:43:34.259Z,88.77
2017-11-11T06:44:34.241Z,87.58
2017-11-11T06:45:34.241Z,88.91
2017-11-11T06:46:34.233Z,87.06
2017-11-11T06:47:34.232Z,87.58
2017-11-11T06:48:34.229Z,88.81
2017-11-11T06:49:34.214Z,88.34
2017-11-11T06:50:34.218Z,88.43
2017-11-11T06:51:34.222Z,89.29
2017-11-11T06:52:34.195Z,88.53
2017-11-11T06:53:34.210Z,87.49
2017-11-11T06:54:34.181Z,87.49
2017-11-11T06:55:34.188Z,90.05
2017-11-11T06:56:34.172Z,89.00
2017-11-11T06:57:34.166Z,86.63
2017-11-11T06:58:34.187Z,87.87
2017-11-11T06:59:34.157Z,86.72
2017-11-11T07:00:34.166Z,89.20
2017-11-11T07:01:34.145Z,86.91
2017-11-11T07:02:34.141Z,86.82
2017-11-11T07:03:34.137Z,87.49
2017-11-11T07:04:34.130Z,87.01
2017-11-11T07:05:34.126Z,86.44
2017-11-11T07:06:34.130Z,87.01
2017-11-11T07:07:34.119Z,87.11
2017-11-11T07:08:34.110Z,86.91
2017-11-11T07:09:34.136Z,86.25
2017-11-11T07:10:34.096Z,86.44
2017-11-11T07:11:34.108Z,86.44
2017-11-11T07:12:34.083Z,86.82
2017-11-11T07:13:34.092Z,88.34
2017-11-11T07:14:34.085Z,86.54
2017-11-11T07:15:34.072Z,86.16
2017-11-11T07:16:34.063Z,87.01
2017-11-11T07:17:34.080Z,86.16
2017-11-11T07:18:34.051Z,86.16
2017-11-11T07:19:34.050Z,88.39
2017-11-11T07:20:34.041Z,85.97
2017-11-11T07:21:34.044Z,87.20
2017-11-11T07:22:34.049Z,85.59
2017-11-11T07:23:34.031Z,84.92
2017-11-11T07:24:34.021Z,86.11
2017-11-11T07:25:34.015Z,85.16
2017-11-11T07:26:34.031Z,85.53
2017-11-11T07:27:34.008Z,85.72
2017-11-11T07:28:34.000Z,85.35
2017-11-11T07:29:34.004Z,85.44
2017-11-11T07:30:34.010Z,86.01
2017-11-11T07:31:34.021Z,84.59
2017-11-11T07:32:33.978Z,84.21
2017-11-11T07:33:33.973Z,83.26
2017-11-11T07:34:33.995Z,83.83
2017-11-11T07:35:33.963Z,84.87
2017-11-11T07:36:33.954Z,84.68
2017-11-11T07:37:33.961Z,83.73
2017-11-11T07:38:33.966Z,84.01
2017-11-11T07:39:33.972Z,84.68
2017-11-11T07:40:33.935Z,84.78
2017-11-11T07:41:33.938Z,84.59
2017-11-11T07:42:33.932Z,84.97
2017-11-11T07:43:33.929Z,84.68
2017-11-11T07:44:33.942Z,83.92
2017-11-11T07:45:33.932Z,83.36
2017-11-11T07:46:33.940Z,84.87
2017-11-11T07:47:33.978Z,86.96
2017-11-11T07:48:33.901Z,84.49
2017-11-11T07:49:33.906Z,84.87
2017-11-11T07:50:33.894Z,83.92
2017-11-11T07:51:33.894Z,82.97
2017-11-11T07:52:33.878Z,83.54
2017-11-11T07:53:33.877Z,83.83
2017-11-11T07:54:33.875Z,84.97
2017-11-11T07:55:33.864Z,85.49
2017-11-11T07:56:33.861Z,84.40
2017-11-11T07:57:33.894Z,82.59
2017-11-11T07:58:33.865Z,84.87
2017-11-11T07:59:33.862Z,84.97
2017-11-11T08:00:33.839Z,85.16
2017-11-11T08:01:33.869Z,85.25
2017-11-11T08:02:33.844Z,86.01
2017-11-11T08:03:33.828Z,84.87
2017-11-11T08:04:33.838Z,83.73
2017-11-11T08:05:33.822Z,82.03
2017-11-11T08:06:33.820Z,83.83
2017-11-11T08:07:33.858Z,83.07
2017-11-11T08:08:33.817Z,83.16
2017-11-11T08:09:33.801Z,84.11
2017-11-11T08:10:33.867Z,84.21
2017-11-11T08:11:33.832Z,85.72
2017-11-11T08:12:33.846Z,85.91
2017-11-11T08:13:33.782Z,83.92
2017-11-11T08:14:33.785Z,83.83
2017-11-11T08:15:33.784Z,82.78
2017-11-11T08:16:33.782Z,83.45
2017-11-11T08:17:33.785Z,83.83
2017-11-11T08:18:33.789Z,83.07
2017-11-11T08:19:33.760Z,82.88
2017-11-11T08:20:33.767Z,86.30
2017-11-11T08:21:33.779Z,83.64
2017-11-11T08:22:33.744Z,84.01
2017-11-11T08:23:33.745Z,86.49
2017-11-11T08:24:33.756Z,85.01
2017-11-11T08:25:33.737Z,86.24
2017-11-11T08:26:33.724Z,83.49
2017-11-11T08:27:33.772Z,81.49
2017-11-11T08:28:33.721Z,82.45
2017-11-11T08:29:33.725Z,84.63
2017-11-11T08:30:33.709Z,87.01
2017-11-11T08:31:33.719Z,84.34
2017-11-11T08:32:33.707Z,84.06
2017-11-11T08:33:33.716Z,84.63
2017-11-11T08:34:33.699Z,83.87
2017-11-11T08:35:33.708Z,83.87
2017-11-11T08:36:33.683Z,83.59
2017-11-11T08:37:33.687Z,82.54
2017-11-11T08:38:33.681Z,81.30
2017-11-11T08:39:33.671Z,83.59
2017-11-11T08:40:33.669Z,82.92
2017-11-11T08:41:33.681Z,82.54
2017-11-11T08:42:33.659Z,84.34
2017-11-11T08:43:33.668Z,80.83
2017-11-11T08:44:33.653Z,81.40
2017-11-11T08:45:33.655Z,81.12
2017-11-11T08:46:33.649Z,82.45
2017-11-11T08:47:33.647Z,82.35
2017-11-11T08:48:33.639Z,82.26
2017-11-11T08:49:33.628Z,81.87
2017-11-11T08:50:33.629Z,81.78
2017-11-11T08:51:33.703Z,81.68
2017-11-11T08:52:33.634Z,80.64
2017-11-11T08:53:33.617Z,81.49
2017-11-11T08:54:33.612Z,81.21
2017-11-11T08:55:33.604Z,82.16
2017-11-11T08:56:33.604Z,80.74
2017-11-11T08:57:33.609Z,81.49
2017-11-11T08:58:33.600Z,80.93
2017-11-11T08:59:33.602Z,80.83
2017-11-11T09:00:33.584Z,80.83
2017-11-11T09:01:33.597Z,81.12
2017-11-11T09:02:33.753Z,81.87
2017-11-11T09:03:33.589Z,81.78
2017-11-11T09:04:33.646Z,80.93
2017-11-11T09:05:33.573Z,80.83
2017-11-11T09:06:33.562Z,80.83
2017-11-11T09:07:33.561Z,80.55
2017-11-11T09:08:33.608Z,81.02
2017-11-11T09:09:33.652Z,80.74
2017-11-11T09:10:33.542Z,80.93
2017-11-11T09:11:33.541Z,80.83
2017-11-11T09:12:33.546Z,80.93
2017-11-11T09:13:33.539Z,81.87
2017-11-11T09:14:33.529Z,81.49
2017-11-11T09:15:33.534Z,81.68
2017-11-11T09:16:33.526Z,81.21
2017-11-11T09:17:33.515Z,80.74
2017-11-11T09:18:33.522Z,81.12
2017-11-11T09:19:33.506Z,81.12
2017-11-11T09:20:33.509Z,81.12
2017-11-11T09:21:33.509Z,80.83
2017-11-11T09:22:33.504Z,80.74
2017-11-11T09:23:33.495Z,82.16
2017-11-11T09:24:33.493Z,81.97
2017-11-11T09:25:33.490Z,81.12
2017-11-11T09:26:33.482Z,80.45
2017-11-11T09:27:33.482Z,80.93
2017-11-11T09:28:33.475Z,80.45
2017-11-11T09:29:33.468Z,79.97
2017-11-11T09:30:33.462Z,80.16
2017-11-11T09:31:33.478Z,80.74
2017-11-11T09:32:33.465Z,80.77
2017-11-11T09:33:33.476Z,80.74
2017-11-11T09:34:33.452Z,79.41
2017-11-11T09:35:33.445Z,79.97
2017-11-11T09:36:33.440Z,80.55
2017-11-11T09:37:34.374Z,80.83
2017-11-11T09:38:33.443Z,81.30
2017-11-11T09:39:33.434Z,81.21
2017-11-11T09:40:33.436Z,81.12
2017-11-11T09:41:33.422Z,81.68
2017-11-11T09:42:33.423Z,80.74
2017-11-11T09:43:33.457Z,80.93
2017-11-11T09:44:33.410Z,81.49
2017-11-11T09:45:33.412Z,81.40
2017-11-11T09:46:33.409Z,82.45
2017-11-11T09:47:33.654Z,82.16
2017-11-11T09:48:33.457Z,81.68
2017-11-11T09:49:33.397Z,81.30
2017-11-11T09:50:33.390Z,81.97
2017-11-11T09:51:33.386Z,82.07
2017-11-11T09:52:33.398Z,81.40
2017-11-11T09:53:33.379Z,81.78
2017-11-11T09:54:33.376Z,82.16
2017-11-11T09:55:34.733Z,82.16
2017-11-11T09:56:33.371Z,82.64
2017-11-11T09:57:33.367Z,80.74
2017-11-11T09:58:33.365Z,81.68
2017-11-11T09:59:33.359Z,81.30
2017-11-11T10:00:33.385Z,81.21
2017-11-11T10:01:33.348Z,83.49
2017-11-11T10:02:33.569Z,82.54
2017-11-11T10:03:33.337Z,82.26
2017-11-11T10:04:33.336Z,82.35
2017-11-11T10:05:33.331Z,81.49
2017-11-11T10:06:33.329Z,81.30
2017-11-11T10:07:33.326Z,80.83
2017-11-11T10:08:33.327Z,81.35
2017-11-11T10:09:33.316Z,81.44
2017-11-11T10:10:33.316Z,80.40
2017-11-11T10:11:33.310Z,83.53
2017-11-11T10:12:33.311Z,81.35
2017-11-11T10:13:33.306Z,80.96
2017-11-11T10:14:33.294Z,79.92
2017-11-11T10:15:33.291Z,80.68
2017-11-11T10:16:33.287Z,80.21
2017-11-11T10:17:33.299Z,79.73
2017-11-11T10:18:33.279Z,79.83
2017-11-11T10:19:33.600Z,79.83
2017-11-11T10:20:33.275Z,81.16
2017-11-11T10:21:33.270Z,80.87
2017-11-11T10:22:33.275Z,80.68
2017-11-11T10:23:33.264Z,79.16
2017-11-11T10:24:33.260Z,79.92
2017-11-11T10:25:33.707Z,78.11
2017-11-11T10:26:33.270Z,81.06
2017-11-11T10:27:33.252Z,80.63
2017-11-11T10:28:33.253Z,77.55
2017-11-11T10:29:33.251Z,78.06
2017-11-11T10:30:33.245Z,79.35
2017-11-11T10:31:33.248Z,80.11
2017-11-11T10:32:33.269Z,80.44
2017-11-11T10:33:33.232Z,80.53
2017-11-11T10:34:33.246Z,80.53
2017-11-11T10:35:33.222Z,78.34
2017-11-11T10:36:33.245Z,79.68
2017-11-11T10:37:33.218Z,76.59
2017-11-11T10:38:33.821Z,77.07
2017-11-11T10:39:33.230Z,79.92
2017-11-11T10:40:33.209Z,79.54
2017-11-11T10:41:33.250Z,81.06
2017-11-11T10:42:33.206Z,80.77
2017-11-11T10:43:33.220Z,80.96
2017-11-11T10:44:33.452Z,83.62
2017-11-11T10:45:34.097Z,81.35
2017-11-11T10:46:33.188Z,79.25
2017-11-11T10:47:34.465Z,79.25
2017-11-11T10:48:33.209Z,79.83
2017-11-11T10:49:33.176Z,78.78
2017-11-11T10:50:33.210Z,78.40
2017-11-11T10:51:33.175Z,79.16
2017-11-11T10:52:33.184Z,79.83
2017-11-11T10:53:33.172Z,79.54
2017-11-11T10:54:33.165Z,79.54
2017-11-11T10:55:33.165Z,80.02
2017-11-11T10:56:33.158Z,80.40
2017-11-11T10:57:33.161Z,80.96
2017-11-11T10:58:33.159Z,81.44
2017-11-11T10:59:33.458Z,81.16
2017-11-11T11:00:33.148Z,78.97
2017-11-11T11:01:33.373Z,79.16
2017-11-11T11:02:33.136Z,79.06
2017-11-11T11:03:33.501Z,78.59
2017-11-11T11:04:33.142Z,77.83
2017-11-11T11:05:33.436Z,79.73
2017-11-11T11:06:33.231Z,82.15
2017-11-11T11:07:33.124Z,81.86
2017-11-11T11:08:33.118Z,78.78
2017-11-11T11:09:33.115Z,78.21
2017-11-11T11:10:33.109Z,80.21
2017-11-11T11:11:33.117Z,81.35
2017-11-11T11:12:33.108Z,79.54
2017-11-11T11:13:33.098Z,80.02
2017-11-11T11:14:33.094Z,79.83
2017-11-11T11:15:33.093Z,79.77
2017-11-11T11:16:33.116Z,79.11
2017-11-11T11:17:33.096Z,79.35
2017-11-11T11:18:33.085Z,79.01
2017-11-11T11:19:33.081Z,79.01
2017-11-11T11:20:33.086Z,80.63
2017-11-11T11:21:33.086Z,79.44
2017-11-11T11:22:33.070Z,78.50
2017-11-11T11:23:33.099Z,77.58
2017-11-11T11:24:33.088Z,79.30
2017-11-11T11:25:33.093Z,79.68
2017-11-11T11:26:33.062Z,78.06
2017-11-11T11:27:33.058Z,78.11
2017-11-11T11:28:33.060Z,78.06
2017-11-11T11:29:33.055Z,78.11
2017-11-11T11:30:33.051Z,78.02
2017-11-11T11:31:33.059Z,78.78
2017-11-11T11:32:33.042Z,78.97
2017-11-11T11:33:33.074Z,79.06
2017-11-11T11:34:33.034Z,79.73
2017-11-11T11:35:33.039Z,78.21
2017-11-11T11:36:33.031Z,79.16
2017-11-11T11:37:33.027Z,79.73
2017-11-11T11:38:33.037Z,78.97
2017-11-11T11:39:33.021Z,79.25
2017-11-11T11:40:33.022Z,78.88
2017-11-11T11:41:33.018Z,78.88
2017-11-11T11:42:33.025Z,79.35
2017-11-11T11:43:33.013Z,79.25
2017-11-11T11:44:33.019Z,78.97
2017-11-11T11:45:33.026Z,80.21
2017-11-11T11:46:33.000Z,80.02
2017-11-11T11:47:33.009Z,79.54
2017-11-11T11:48:32.992Z,79.25
2017-11-11T11:49:32.989Z,79.16
2017-11-11T11:50:32.983Z,79.25
2017-11-11T11:51:32.983Z,79.16
2017-11-11T11:52:32.979Z,79.06
2017-11-11T11:53:33.013Z,79.92
2017-11-11T11:54:32.979Z,79.25
2017-11-11T11:55:32.963Z,79.06
2017-11-11T11:56:32.973Z,78.40
2017-11-11T11:57:32.963Z,78.97
2017-11-11T11:58:32.954Z,79.83
2017-11-11T11:59:32.983Z,79.83
2017-11-11T12:00:32.954Z,78.78
2017-11-11T12:01:32.963Z,78.30
2017-11-11T12:02:32.951Z,78.02
2017-11-11T12:03:32.941Z,78.21
2017-11-11T12:04:32.932Z,77.73
2017-11-11T12:05:32.936Z,77.83
2017-11-11T12:06:32.930Z,78.69
2017-11-11T12:07:32.920Z,78.25
2017-11-11T12:08:32.945Z,77.01
2017-11-11T12:09:32.930Z,77.20
2017-11-11T12:10:32.921Z,76.54
2017-11-11T12:11:32.936Z,76.63
2017-11-11T12:12:32.906Z,76.25
2017-11-11T12:13:32.901Z,77.01
2017-11-11T12:14:32.899Z,76.06
2017-11-11T12:15:32.923Z,76.16
2017-11-11T12:16:32.903Z,76.44
2017-11-11T12:17:32.903Z,76.82
2017-11-11T12:18:32.890Z,76.25
2017-11-11T12:19:32.892Z,76.63
2017-11-11T12:20:32.883Z,76.06
2017-11-11T12:21:32.893Z,76.06
2017-11-11T12:22:32.888Z,75.87
2017-11-11T12:23:32.880Z,76.06
2017-11-11T12:24:32.875Z,76.06
2017-11-11T12:25:32.874Z,76.73
2017-11-11T12:26:32.895Z,75.78
2017-11-11T12:27:32.864Z,75.78
2017-11-11T12:28:32.871Z,75.30
2017-11-11T12:29:32.857Z,75.87
2017-11-11T12:30:32.851Z,75.30
2017-11-11T12:31:32.859Z,74.82
2017-11-11T12:32:32.854Z,75.21
2017-11-11T12:33:32.850Z,75.78
2017-11-11T12:34:32.847Z,74.82
2017-11-11T12:35:32.837Z,75.40
2017-11-11T12:36:32.832Z,74.63
2017-11-11T12:37:32.869Z,75.40
2017-11-11T12:38:32.824Z,75.02
2017-11-11T12:39:32.823Z,74.82
2017-11-11T12:40:32.822Z,75.40
2017-11-11T12:41:32.825Z,74.54
2017-11-11T12:42:32.825Z,75.11
2017-11-11T12:43:32.819Z,75.40
2017-11-11T12:44:32.810Z,74.54
2017-11-11T12:45:32.806Z,76.73
2017-11-11T12:46:32.854Z,75.78
2017-11-11T12:47:32.820Z,75.40
2017-11-11T12:48:32.804Z,75.40
2017-11-11T12:49:32.800Z,75.30
2017-11-11T12:50:32.799Z,74.92
2017-11-11T12:51:32.791Z,75.30
2017-11-11T12:52:32.807Z,75.59